sensor_id;sensor_type;location;lat;lon;timestamp;P1;durP1;ratioP1;P2;durP2;ratioP2
64936;SDS011;51452;47.698;19.050;2023-02-28T00:00:42;14.70;;;4.43;;
64936;SDS011;51452;47.698;19.050;2023-02-28T00:03:08;12.10;;;3.93;;
64936;SDS011;51452;47.698;19.050;2023-02-28T00:05:33;16.33;;;5.17;;
64936;SDS011;51452;47.698;19.050;2023-02-28T00:07:59;15.60;;;5.03;;
64936;SDS011;51452;47.698;19.050;2023-02-28T00:10:26;14.87;;;5.20;;
64936;SDS011;51452;47.698;19.050;2023-02-28T00:12:54;15.50;;;4.40;;
64936;SDS011;51452;47.698;19.050;2023-02-28T00:15:22;9.40;;;4.37;;
64936;SDS011;51452;47.698;19.050;2023-02-28T00:17:48;11.90;;;4.60;;
64936;SDS011;51452;47.698;19.050;2023-02-28T00:20:14;11.83;;;4.00;;
64936;SDS011;51452;47.698;19.050;2023-02-28T00:22:42;7.70;;;3.60;;
64936;SDS011;51452;47.698;19.050;2023-02-28T00:25:10;11.37;;;4.60;;
64936;SDS011;51452;47.698;19.050;2023-02-28T00:27:38;9.80;;;3.60;;
64936;SDS011;51452;47.698;19.050;2023-02-28T00:30:05;9.27;;;4.57;;
64936;SDS011;51452;47.698;19.050;2023-02-28T00:32:33;7.43;;;3.77;;
64936;SDS011;51452;47.698;19.050;2023-02-28T00:34:59;8.63;;;3.63;;
64936;SDS011;51452;47.698;19.050;2023-02-28T00:37:25;10.07;;;4.30;;
64936;SDS011;51452;47.698;19.050;2023-02-28T00:39:50;8.70;;;3.80;;
64936;SDS011;51452;47.698;19.050;2023-02-28T00:42:15;8.33;;;3.97;;
64936;SDS011;51452;47.698;19.050;2023-02-28T00:44:41;8.23;;;4.03;;
64936;SDS011;51452;47.698;19.050;2023-02-28T00:47:06;10.30;;;3.90;;
64936;SDS011;51452;47.698;19.050;2023-02-28T00:49:32;9.57;;;3.90;;
64936;SDS011;51452;47.698;19.050;2023-02-28T00:51:57;9.43;;;4.20;;
64936;SDS011;51452;47.698;19.050;2023-02-28T00:54:23;9.47;;;4.23;;
64936;SDS011;51452;47.698;19.050;2023-02-28T00:56:50;8.90;;;3.70;;
64936;SDS011;51452;47.698;19.050;2023-02-28T00:59:16;8.77;;;3.90;;
64936;SDS011;51452;47.698;19.050;2023-02-28T01:01:45;7.97;;;3.63;;
64936;SDS011;51452;47.698;19.050;2023-02-28T01:04:11;9.53;;;3.63;;
64936;SDS011;51452;47.698;19.050;2023-02-28T01:06:37;9.70;;;4.00;;
64936;SDS011;51452;47.698;19.050;2023-02-28T01:09:04;9.70;;;3.77;;
64936;SDS011;51452;47.698;19.050;2023-02-28T01:11:30;6.73;;;4.07;;
64936;SDS011;51452;47.698;19.050;2023-02-28T01:13:57;8.57;;;4.13;;
64936;SDS011;51452;47.698;19.050;2023-02-28T01:16:23;8.40;;;4.13;;
64936;SDS011;51452;47.698;19.050;2023-02-28T01:18:49;8.67;;;3.83;;
64936;SDS011;51452;47.698;19.050;2023-02-28T01:21:15;8.07;;;3.20;;
64936;SDS011;51452;47.698;19.050;2023-02-28T01:23:42;8.77;;;4.30;;
64936;SDS011;51452;47.698;19.050;2023-02-28T01:26:09;9.07;;;3.67;;
64936;SDS011;51452;47.698;19.050;2023-02-28T01:28:36;7.87;;;3.73;;
64936;SDS011;51452;47.698;19.050;2023-02-28T01:31:02;6.43;;;3.30;;
64936;SDS011;51452;47.698;19.050;2023-02-28T01:33:28;6.53;;;3.20;;
64936;SDS011;51452;47.698;19.050;2023-02-28T01:38:25;8.97;;;3.63;;
64936;SDS011;51452;47.698;19.050;2023-02-28T01:40:50;9.43;;;3.70;;
64936;SDS011;51452;47.698;19.050;2023-02-28T01:43:23;7.90;;;3.53;;
64936;SDS011;51452;47.698;19.050;2023-02-28T01:45:52;5.82;;;3.17;;
64936;SDS011;51452;47.698;19.050;2023-02-28T01:48:19;8.70;;;3.53;;
64936;SDS011;51452;47.698;19.050;2023-02-28T01:50:48;6.53;;;3.23;;
64936;SDS011;51452;47.698;19.050;2023-02-28T01:53:16;6.00;;;3.37;;
64936;SDS011;51452;47.698;19.050;2023-02-28T01:55:48;9.80;;;3.67;;
64936;SDS011;51452;47.698;19.050;2023-02-28T01:58:16;6.57;;;3.43;;
64936;SDS011;51452;47.698;19.050;2023-02-28T02:00:42;6.63;;;3.17;;
64936;SDS011;51452;47.698;19.050;2023-02-28T02:03:09;7.20;;;3.23;;
64936;SDS011;51452;47.698;19.050;2023-02-28T02:05:38;8.63;;;3.83;;
64936;SDS011;51452;47.698;19.050;2023-02-28T02:08:05;8.00;;;3.33;;
64936;SDS011;51452;47.698;19.050;2023-02-28T02:18:58;5.73;;;3.27;;
64936;SDS011;51452;47.698;19.050;2023-02-28T02:32:42;6.27;;;2.97;;
64936;SDS011;51452;47.698;19.050;2023-02-28T02:46:33;6.30;;;3.40;;
64936;SDS011;51452;47.698;19.050;2023-02-28T02:49:00;6.33;;;3.87;;
64936;SDS011;51452;47.698;19.050;2023-02-28T02:51:30;6.13;;;3.63;;
64936;SDS011;51452;47.698;19.050;2023-02-28T02:54:08;6.67;;;3.43;;
64936;SDS011;51452;47.698;19.050;2023-02-28T02:56:40;6.43;;;3.43;;
64936;SDS011;51452;47.698;19.050;2023-02-28T02:59:09;7.07;;;3.53;;
64936;SDS011;51452;47.698;19.050;2023-02-28T03:01:37;6.70;;;3.57;;
64936;SDS011;51452;47.698;19.050;2023-02-28T03:04:13;6.90;;;3.17;;
64936;SDS011;51452;47.698;19.050;2023-02-28T03:06:41;6.23;;;3.20;;
64936;SDS011;51452;47.698;19.050;2023-02-28T03:09:07;8.00;;;3.17;;
64936;SDS011;51452;47.698;19.050;2023-02-28T03:11:32;5.30;;;3.17;;
64936;SDS011;51452;47.698;19.050;2023-02-28T03:14:07;8.53;;;3.20;;
64936;SDS011;51452;47.698;19.050;2023-02-28T03:19:21;7.13;;;3.53;;
64936;SDS011;51452;47.698;19.050;2023-02-28T03:29:47;8.23;;;3.57;;
64936;SDS011;51452;47.698;19.050;2023-02-28T03:32:24;8.67;;;3.73;;
64936;SDS011;51452;47.698;19.050;2023-02-28T03:35:25;6.97;;;3.60;;
64936;SDS011;51452;47.698;19.050;2023-02-28T03:38:00;8.00;;;3.73;;
64936;SDS011;51452;47.698;19.050;2023-02-28T03:40:49;7.47;;;3.57;;
64936;SDS011;51452;47.698;19.050;2023-02-28T03:43:22;8.30;;;4.10;;
64936;SDS011;51452;47.698;19.050;2023-02-28T03:45:56;8.03;;;3.50;;
64936;SDS011;51452;47.698;19.050;2023-02-28T03:48:31;11.37;;;3.90;;
64936;SDS011;51452;47.698;19.050;2023-02-28T03:51:01;6.67;;;3.57;;
64936;SDS011;51452;47.698;19.050;2023-02-28T03:53:32;10.10;;;3.80;;
64936;SDS011;51452;47.698;19.050;2023-02-28T04:01:25;7.10;;;3.47;;
64936;SDS011;51452;47.698;19.050;2023-02-28T04:03:57;7.90;;;3.50;;
64936;SDS011;51452;47.698;19.050;2023-02-28T04:06:22;7.20;;;3.23;;
64936;SDS011;51452;47.698;19.050;2023-02-28T04:08:48;6.47;;;3.17;;
64936;SDS011;51452;47.698;19.050;2023-02-28T04:13:42;5.77;;;3.17;;
64936;SDS011;51452;47.698;19.050;2023-02-28T04:16:08;9.60;;;3.83;;
64936;SDS011;51452;47.698;19.050;2023-02-28T04:18:37;7.17;;;4.03;;
64936;SDS011;51452;47.698;19.050;2023-02-28T04:21:04;7.03;;;3.50;;
64936;SDS011;51452;47.698;19.050;2023-02-28T04:23:30;8.47;;;3.50;;
64936;SDS011;51452;47.698;19.050;2023-02-28T04:25:56;5.20;;;2.80;;
64936;SDS011;51452;47.698;19.050;2023-02-28T04:28:21;8.73;;;3.20;;
64936;SDS011;51452;47.698;19.050;2023-02-28T04:30:47;6.33;;;3.77;;
64936;SDS011;51452;47.698;19.050;2023-02-28T04:33:12;6.77;;;2.97;;
64936;SDS011;51452;47.698;19.050;2023-02-28T04:35:38;6.33;;;3.03;;
64936;SDS011;51452;47.698;19.050;2023-02-28T04:38:03;5.87;;;3.27;;
64936;SDS011;51452;47.698;19.050;2023-02-28T04:40:29;7.43;;;3.67;;
64936;SDS011;51452;47.698;19.050;2023-02-28T04:42:54;6.17;;;3.23;;
64936;SDS011;51452;47.698;19.050;2023-02-28T04:45:20;10.43;;;3.43;;
64936;SDS011;51452;47.698;19.050;2023-02-28T04:47:45;8.27;;;3.63;;
64936;SDS011;51452;47.698;19.050;2023-02-28T04:50:11;6.90;;;3.53;;
64936;SDS011;51452;47.698;19.050;2023-02-28T04:52:36;8.93;;;3.90;;
64936;SDS011;51452;47.698;19.050;2023-02-28T04:55:01;6.80;;;3.20;;
64936;SDS011;51452;47.698;19.050;2023-02-28T04:57:27;7.47;;;3.30;;
64936;SDS011;51452;47.698;19.050;2023-02-28T04:59:52;6.67;;;3.60;;
64936;SDS011;51452;47.698;19.050;2023-02-28T05:02:18;7.67;;;3.53;;
64936;SDS011;51452;47.698;19.050;2023-02-28T05:04:45;6.43;;;2.90;;
64936;SDS011;51452;47.698;19.050;2023-02-28T05:07:10;6.80;;;3.10;;
64936;SDS011;51452;47.698;19.050;2023-02-28T05:09:35;5.83;;;3.10;;
64936;SDS011;51452;47.698;19.050;2023-02-28T05:12:01;11.57;;;3.90;;
64936;SDS011;51452;47.698;19.050;2023-02-28T05:14:26;6.43;;;3.20;;
64936;SDS011;51452;47.698;19.050;2023-02-28T05:16:52;8.63;;;3.43;;
64936;SDS011;51452;47.698;19.050;2023-02-28T05:19:17;6.60;;;3.10;;
64936;SDS011;51452;47.698;19.050;2023-02-28T05:21:50;8.63;;;3.77;;
64936;SDS011;51452;47.698;19.050;2023-02-28T05:24:17;5.55;;;3.00;;
64936;SDS011;51452;47.698;19.050;2023-02-28T05:26:47;6.73;;;3.33;;
64936;SDS011;51452;47.698;19.050;2023-02-28T05:29:13;6.60;;;3.27;;
64936;SDS011;51452;47.698;19.050;2023-02-28T05:31:39;7.93;;;3.50;;
64936;SDS011;51452;47.698;19.050;2023-02-28T05:34:04;6.43;;;3.07;;
64936;SDS011;51452;47.698;19.050;2023-02-28T05:36:30;9.10;;;3.23;;
64936;SDS011;51452;47.698;19.050;2023-02-28T05:38:56;5.40;;;3.13;;
64936;SDS011;51452;47.698;19.050;2023-02-28T05:41:21;6.63;;;3.37;;
64936;SDS011;51452;47.698;19.050;2023-02-28T05:43:47;7.10;;;3.47;;
64936;SDS011;51452;47.698;19.050;2023-02-28T05:46:13;7.37;;;3.43;;
64936;SDS011;51452;47.698;19.050;2023-02-28T05:48:41;5.67;;;3.00;;
64936;SDS011;51452;47.698;19.050;2023-02-28T05:51:07;6.43;;;3.20;;
64936;SDS011;51452;47.698;19.050;2023-02-28T05:53:33;5.53;;;3.10;;
64936;SDS011;51452;47.698;19.050;2023-02-28T05:55:59;5.43;;;3.13;;
64936;SDS011;51452;47.698;19.050;2023-02-28T05:58:25;6.67;;;3.33;;
64936;SDS011;51452;47.698;19.050;2023-02-28T06:00:54;11.10;;;3.50;;
64936;SDS011;51452;47.698;19.050;2023-02-28T06:03:19;7.73;;;3.57;;
64936;SDS011;51452;47.698;19.050;2023-02-28T06:05:45;7.10;;;3.33;;
64936;SDS011;51452;47.698;19.050;2023-02-28T06:08:11;6.30;;;3.17;;
64936;SDS011;51452;47.698;19.050;2023-02-28T06:10:37;5.57;;;3.10;;
64936;SDS011;51452;47.698;19.050;2023-02-28T06:13:03;5.60;;;3.03;;
64936;SDS011;51452;47.698;19.050;2023-02-28T06:15:29;6.07;;;3.13;;
64936;SDS011;51452;47.698;19.050;2023-02-28T06:17:55;6.77;;;3.03;;
64936;SDS011;51452;47.698;19.050;2023-02-28T06:20:25;7.17;;;3.40;;
64936;SDS011;51452;47.698;19.050;2023-02-28T06:22:57;6.27;;;2.87;;
64936;SDS011;51452;47.698;19.050;2023-02-28T06:25:27;7.57;;;3.43;;
64936;SDS011;51452;47.698;19.050;2023-02-28T06:27:53;7.60;;;3.10;;
64936;SDS011;51452;47.698;19.050;2023-02-28T06:30:19;5.20;;;2.77;;
64936;SDS011;51452;47.698;19.050;2023-02-28T06:32:48;7.07;;;2.87;;
64936;SDS011;51452;47.698;19.050;2023-02-28T06:35:14;7.23;;;3.10;;
64936;SDS011;51452;47.698;19.050;2023-02-28T06:37:39;6.33;;;3.03;;
64936;SDS011;51452;47.698;19.050;2023-02-28T06:40:05;6.23;;;3.00;;
64936;SDS011;51452;47.698;19.050;2023-02-28T06:42:31;5.60;;;3.27;;
64936;SDS011;51452;47.698;19.050;2023-02-28T06:44:57;5.93;;;2.80;;
64936;SDS011;51452;47.698;19.050;2023-02-28T06:47:23;6.43;;;2.97;;
64936;SDS011;51452;47.698;19.050;2023-02-28T06:49:49;6.43;;;3.47;;
64936;SDS011;51452;47.698;19.050;2023-02-28T06:52:15;7.30;;;3.00;;
64936;SDS011;51452;47.698;19.050;2023-02-28T06:54:41;7.77;;;3.70;;
64936;SDS011;51452;47.698;19.050;2023-02-28T06:57:07;6.40;;;3.23;;
64936;SDS011;51452;47.698;19.050;2023-02-28T06:59:32;7.23;;;3.40;;
64936;SDS011;51452;47.698;19.050;2023-02-28T07:01:58;5.43;;;2.93;;
64936;SDS011;51452;47.698;19.050;2023-02-28T07:04:23;7.93;;;3.00;;
64936;SDS011;51452;47.698;19.050;2023-02-28T07:06:49;6.33;;;3.33;;
64936;SDS011;51452;47.698;19.050;2023-02-28T07:09:14;6.67;;;3.10;;
64936;SDS011;51452;47.698;19.050;2023-02-28T07:11:40;6.47;;;3.20;;
64936;SDS011;51452;47.698;19.050;2023-02-28T07:14:07;10.57;;;3.60;;
64936;SDS011;51452;47.698;19.050;2023-02-28T07:16:33;8.97;;;3.50;;
64936;SDS011;51452;47.698;19.050;2023-02-28T07:18:59;5.77;;;2.73;;
64936;SDS011;51452;47.698;19.050;2023-02-28T07:21:24;6.03;;;3.03;;
64936;SDS011;51452;47.698;19.050;2023-02-28T07:23:50;8.47;;;3.30;;
64936;SDS011;51452;47.698;19.050;2023-02-28T07:26:17;5.53;;;2.77;;
64936;SDS011;51452;47.698;19.050;2023-02-28T07:28:44;6.23;;;2.90;;
64936;SDS011;51452;47.698;19.050;2023-02-28T07:31:12;6.23;;;3.10;;
64936;SDS011;51452;47.698;19.050;2023-02-28T07:33:41;6.67;;;3.37;;
64936;SDS011;51452;47.698;19.050;2023-02-28T07:36:08;7.50;;;3.63;;
64936;SDS011;51452;47.698;19.050;2023-02-28T07:38:40;7.37;;;3.20;;
64936;SDS011;51452;47.698;19.050;2023-02-28T07:41:07;6.93;;;3.20;;
64936;SDS011;51452;47.698;19.050;2023-02-28T07:43:33;6.37;;;3.37;;
64936;SDS011;51452;47.698;19.050;2023-02-28T07:46:09;5.97;;;3.00;;
64936;SDS011;51452;47.698;19.050;2023-02-28T07:48:35;6.80;;;3.70;;
64936;SDS011;51452;47.698;19.050;2023-02-28T07:51:01;7.00;;;3.37;;
64936;SDS011;51452;47.698;19.050;2023-02-28T07:53:27;7.53;;;3.73;;
64936;SDS011;51452;47.698;19.050;2023-02-28T07:55:56;7.90;;;3.43;;
64936;SDS011;51452;47.698;19.050;2023-02-28T07:58:23;6.27;;;3.30;;
64936;SDS011;51452;47.698;19.050;2023-02-28T08:00:50;6.27;;;3.23;;
64936;SDS011;51452;47.698;19.050;2023-02-28T08:03:16;6.23;;;2.87;;
64936;SDS011;51452;47.698;19.050;2023-02-28T08:05:42;7.53;;;3.27;;
64936;SDS011;51452;47.698;19.050;2023-02-28T08:08:08;6.33;;;3.23;;
64936;SDS011;51452;47.698;19.050;2023-02-28T08:10:33;7.27;;;3.20;;
64936;SDS011;51452;47.698;19.050;2023-02-28T08:12:59;9.60;;;3.10;;
64936;SDS011;51452;47.698;19.050;2023-02-28T08:15:25;6.00;;;2.93;;
64936;SDS011;51452;47.698;19.050;2023-02-28T08:17:50;6.10;;;3.10;;
64936;SDS011;51452;47.698;19.050;2023-02-28T08:20:16;10.40;;;3.30;;
64936;SDS011;51452;47.698;19.050;2023-02-28T08:22:41;5.10;;;2.93;;
64936;SDS011;51452;47.698;19.050;2023-02-28T08:25:07;5.80;;;3.00;;
64936;SDS011;51452;47.698;19.050;2023-02-28T08:27:33;5.30;;;3.00;;
64936;SDS011;51452;47.698;19.050;2023-02-28T08:29:59;6.77;;;2.93;;
64936;SDS011;51452;47.698;19.050;2023-02-28T08:32:24;5.17;;;2.90;;
64936;SDS011;51452;47.698;19.050;2023-02-28T08:34:50;6.63;;;3.17;;
64936;SDS011;51452;47.698;19.050;2023-02-28T08:37:16;8.17;;;3.30;;
64936;SDS011;51452;47.698;19.050;2023-02-28T08:39:41;6.47;;;3.33;;
64936;SDS011;51452;47.698;19.050;2023-02-28T08:42:07;6.30;;;3.20;;
64936;SDS011;51452;47.698;19.050;2023-02-28T08:44:32;5.53;;;3.00;;
64936;SDS011;51452;47.698;19.050;2023-02-28T08:46:58;5.43;;;3.03;;
64936;SDS011;51452;47.698;19.050;2023-02-28T08:49:23;6.67;;;3.47;;
64936;SDS011;51452;47.698;19.050;2023-02-28T08:51:48;5.97;;;3.10;;
64936;SDS011;51452;47.698;19.050;2023-02-28T08:54:14;6.13;;;3.17;;
64936;SDS011;51452;47.698;19.050;2023-02-28T08:56:45;6.13;;;2.90;;
64936;SDS011;51452;47.698;19.050;2023-02-28T08:59:14;5.30;;;2.80;;
64936;SDS011;51452;47.698;19.050;2023-02-28T09:01:39;6.27;;;3.07;;
64936;SDS011;51452;47.698;19.050;2023-02-28T09:04:06;6.53;;;3.70;;
64936;SDS011;51452;47.698;19.050;2023-02-28T09:06:33;7.50;;;3.77;;
64936;SDS011;51452;47.698;19.050;2023-02-28T09:08:59;8.90;;;4.60;;
64936;SDS011;51452;47.698;19.050;2023-02-28T09:11:26;8.90;;;4.50;;
64936;SDS011;51452;47.698;19.050;2023-02-28T09:13:52;10.50;;;5.00;;
64936;SDS011;51452;47.698;19.050;2023-02-28T09:16:18;8.20;;;4.63;;
64936;SDS011;51452;47.698;19.050;2023-02-28T09:18:44;9.77;;;4.30;;
64936;SDS011;51452;47.698;19.050;2023-02-28T09:21:11;9.40;;;5.07;;
64936;SDS011;51452;47.698;19.050;2023-02-28T09:23:41;9.83;;;4.67;;
64936;SDS011;51452;47.698;19.050;2023-02-28T09:26:07;10.27;;;4.93;;
64936;SDS011;51452;47.698;19.050;2023-02-28T09:28:37;8.20;;;4.20;;
64936;SDS011;51452;47.698;19.050;2023-02-28T09:31:03;9.10;;;4.67;;
64936;SDS011;51452;47.698;19.050;2023-02-28T09:33:29;7.93;;;4.03;;
64936;SDS011;51452;47.698;19.050;2023-02-28T09:35:59;10.77;;;4.60;;
64936;SDS011;51452;47.698;19.050;2023-02-28T09:38:26;9.67;;;4.27;;
64936;SDS011;51452;47.698;19.050;2023-02-28T09:40:53;8.13;;;4.43;;
64936;SDS011;51452;47.698;19.050;2023-02-28T09:43:22;7.33;;;4.23;;
64936;SDS011;51452;47.698;19.050;2023-02-28T09:46:00;16.70;;;4.33;;
64936;SDS011;51452;47.698;19.050;2023-02-28T09:48:37;8.47;;;4.23;;
64936;SDS011;51452;47.698;19.050;2023-02-28T09:54:00;9.33;;;3.93;;
64936;SDS011;51452;47.698;19.050;2023-02-28T09:56:29;7.50;;;3.70;;
64936;SDS011;51452;47.698;19.050;2023-02-28T10:07:02;7.47;;;3.97;;
64936;SDS011;51452;47.698;19.050;2023-02-28T10:09:42;5.47;;;2.87;;
64936;SDS011;51452;47.698;19.050;2023-02-28T10:12:12;8.30;;;4.90;;
64936;SDS011;51452;47.698;19.050;2023-02-28T10:14:39;6.03;;;3.10;;
64936;SDS011;51452;47.698;19.050;2023-02-28T10:17:23;19.63;;;6.70;;
64936;SDS011;51452;47.698;19.050;2023-02-28T10:19:59;7.97;;;3.63;;
64936;SDS011;51452;47.698;19.050;2023-02-28T10:25:01;6.83;;;3.77;;
64936;SDS011;51452;47.698;19.050;2023-02-28T10:27:41;4.87;;;3.03;;
64936;SDS011;51452;47.698;19.050;2023-02-28T10:30:09;8.87;;;4.30;;
64936;SDS011;51452;47.698;19.050;2023-02-28T10:32:36;9.60;;;4.13;;
64936;SDS011;51452;47.698;19.050;2023-02-28T10:35:11;7.33;;;3.33;;
64936;SDS011;51452;47.698;19.050;2023-02-28T10:37:43;9.83;;;4.97;;
64936;SDS011;51452;47.698;19.050;2023-02-28T10:45:28;5.00;;;2.97;;
64936;SDS011;51452;47.698;19.050;2023-02-28T10:47:58;5.03;;;3.07;;
64936;SDS011;51452;47.698;19.050;2023-02-28T10:53:05;7.70;;;3.40;;
64936;SDS011;51452;47.698;19.050;2023-02-28T10:55:35;7.20;;;4.10;;
64936;SDS011;51452;47.698;19.050;2023-02-28T10:58:01;8.40;;;3.30;;
64936;SDS011;51452;47.698;19.050;2023-02-28T11:00:32;10.30;;;4.37;;
64936;SDS011;51452;47.698;19.050;2023-02-28T11:02:59;12.33;;;5.37;;
64936;SDS011;51452;47.698;19.050;2023-02-28T11:10:31;6.17;;;2.80;;
64936;SDS011;51452;47.698;19.050;2023-02-28T11:12:59;4.17;;;2.47;;
64936;SDS011;51452;47.698;19.050;2023-02-28T11:15:34;5.67;;;3.20;;
64936;SDS011;51452;47.698;19.050;2023-02-28T11:18:02;9.65;;;3.60;;
64936;SDS011;51452;47.698;19.050;2023-02-28T11:20:30;5.50;;;3.10;;
64936;SDS011;51452;47.698;19.050;2023-02-28T11:22:58;7.20;;;3.90;;
64936;SDS011;51452;47.698;19.050;2023-02-28T11:25:29;10.40;;;4.00;;
64936;SDS011;51452;47.698;19.050;2023-02-28T11:28:04;6.30;;;3.60;;
64936;SDS011;51452;47.698;19.050;2023-02-28T11:30:39;5.38;;;3.03;;
64936;SDS011;51452;47.698;19.050;2023-02-28T11:33:27;7.13;;;3.33;;
64936;SDS011;51452;47.698;19.050;2023-02-28T11:36:28;5.97;;;3.37;;
64936;SDS011;51452;47.698;19.050;2023-02-28T11:38:59;5.87;;;3.77;;
64936;SDS011;51452;47.698;19.050;2023-02-28T11:46:51;6.67;;;3.10;;
64936;SDS011;51452;47.698;19.050;2023-02-28T11:52:18;5.83;;;3.10;;
64936;SDS011;51452;47.698;19.050;2023-02-28T11:57:50;5.30;;;2.97;;
64936;SDS011;51452;47.698;19.050;2023-02-28T12:17:16;8.07;;;3.40;;
64936;SDS011;51452;47.698;19.050;2023-02-28T12:22:37;6.40;;;3.10;;
64936;SDS011;51452;47.698;19.050;2023-02-28T12:25:24;8.20;;;4.23;;
64936;SDS011;51452;47.698;19.050;2023-02-28T12:28:14;7.80;;;4.23;;
64936;SDS011;51452;47.698;19.050;2023-02-28T12:31:03;6.13;;;3.57;;
64936;SDS011;51452;47.698;19.050;2023-02-28T12:33:35;8.00;;;4.43;;
64936;SDS011;51452;47.698;19.050;2023-02-28T12:36:10;12.03;;;3.90;;
64936;SDS011;51452;47.698;19.050;2023-02-28T12:38:43;6.60;;;4.10;;
64936;SDS011;51452;47.698;19.050;2023-02-28T12:41:27;6.07;;;3.77;;
64936;SDS011;51452;47.698;19.050;2023-02-28T12:47:03;8.47;;;4.27;;
64936;SDS011;51452;47.698;19.050;2023-02-28T12:49:32;7.23;;;4.37;;
64936;SDS011;51452;47.698;19.050;2023-02-28T12:52:02;7.13;;;4.37;;
64936;SDS011;51452;47.698;19.050;2023-02-28T12:54:40;7.13;;;3.70;;
64936;SDS011;51452;47.698;19.050;2023-02-28T12:57:34;7.20;;;3.90;;
64936;SDS011;51452;47.698;19.050;2023-02-28T13:00:10;5.70;;;3.43;;
64936;SDS011;51452;47.698;19.050;2023-02-28T13:05:25;7.03;;;4.30;;
64936;SDS011;51452;47.698;19.050;2023-02-28T13:10:37;6.03;;;3.83;;
64936;SDS011;51452;47.698;19.050;2023-02-28T13:13:20;7.43;;;3.97;;
64936;SDS011;51452;47.698;19.050;2023-02-28T13:15:57;7.43;;;4.33;;
64936;SDS011;51452;47.698;19.050;2023-02-28T13:18:28;6.77;;;3.80;;
64936;SDS011;51452;47.698;19.050;2023-02-28T13:21:01;7.83;;;4.07;;
64936;SDS011;51452;47.698;19.050;2023-02-28T13:23:37;7.57;;;3.83;;
64936;SDS011;51452;47.698;19.050;2023-02-28T13:26:05;7.67;;;4.33;;
64936;SDS011;51452;47.698;19.050;2023-02-28T13:31:15;9.47;;;4.03;;
64936;SDS011;51452;47.698;19.050;2023-02-28T13:36:39;6.47;;;3.80;;
64936;SDS011;51452;47.698;19.050;2023-02-28T13:47:31;7.77;;;4.53;;
64936;SDS011;51452;47.698;19.050;2023-02-28T13:52:51;6.57;;;3.90;;
64936;SDS011;51452;47.698;19.050;2023-02-28T14:11:25;7.50;;;4.60;;
64936;SDS011;51452;47.698;19.050;2023-02-28T14:13:56;9.00;;;4.60;;
64936;SDS011;51452;47.698;19.050;2023-02-28T14:16:23;7.83;;;3.83;;
64936;SDS011;51452;47.698;19.050;2023-02-28T14:19:00;8.17;;;4.03;;
64936;SDS011;51452;47.698;19.050;2023-02-28T14:21:34;6.17;;;3.70;;
64936;SDS011;51452;47.698;19.050;2023-02-28T14:27:11;8.40;;;4.40;;
64936;SDS011;51452;47.698;19.050;2023-02-28T14:37:39;10.70;;;4.50;;
64936;SDS011;51452;47.698;19.050;2023-02-28T14:40:17;7.30;;;3.93;;
64936;SDS011;51452;47.698;19.050;2023-02-28T14:42:54;7.23;;;4.13;;
64936;SDS011;51452;47.698;19.050;2023-02-28T14:45:29;6.40;;;3.70;;
64936;SDS011;51452;47.698;19.050;2023-02-28T14:47:56;8.80;;;3.90;;
64936;SDS011;51452;47.698;19.050;2023-02-28T14:50:24;6.73;;;3.87;;
64936;SDS011;51452;47.698;19.050;2023-02-28T14:52:54;8.63;;;4.13;;
64936;SDS011;51452;47.698;19.050;2023-02-28T14:55:23;6.33;;;3.70;;
64936;SDS011;51452;47.698;19.050;2023-02-28T14:57:53;12.50;;;4.40;;
64936;SDS011;51452;47.698;19.050;2023-02-28T15:00:24;9.63;;;4.17;;
64936;SDS011;51452;47.698;19.050;2023-02-28T15:02:54;7.70;;;4.20;;
64936;SDS011;51452;47.698;19.050;2023-02-28T15:05:23;6.63;;;4.00;;
64936;SDS011;51452;47.698;19.050;2023-02-28T15:08:05;7.17;;;3.90;;
64936;SDS011;51452;47.698;19.050;2023-02-28T15:10:37;6.90;;;4.03;;
64936;SDS011;51452;47.698;19.050;2023-02-28T15:13:06;7.13;;;4.17;;
64936;SDS011;51452;47.698;19.050;2023-02-28T15:18:20;7.93;;;4.27;;
64936;SDS011;51452;47.698;19.050;2023-02-28T15:20:55;8.10;;;4.03;;
64936;SDS011;51452;47.698;19.050;2023-02-28T15:23:24;10.10;;;4.07;;
64936;SDS011;51452;47.698;19.050;2023-02-28T15:25:49;6.87;;;3.77;;
64936;SDS011;51452;47.698;19.050;2023-02-28T15:28:18;9.17;;;4.53;;
64936;SDS011;51452;47.698;19.050;2023-02-28T15:31:20;8.63;;;4.43;;
64936;SDS011;51452;47.698;19.050;2023-02-28T15:33:56;8.77;;;4.17;;
64936;SDS011;51452;47.698;19.050;2023-02-28T15:36:26;7.07;;;4.13;;
64936;SDS011;51452;47.698;19.050;2023-02-28T15:38:55;7.80;;;4.17;;
64936;SDS011;51452;47.698;19.050;2023-02-28T15:41:21;9.47;;;4.57;;
64936;SDS011;51452;47.698;19.050;2023-02-28T15:43:57;7.30;;;4.07;;
64936;SDS011;51452;47.698;19.050;2023-02-28T15:46:59;8.03;;;4.00;;
64936;SDS011;51452;47.698;19.050;2023-02-28T15:49:28;9.20;;;3.63;;
64936;SDS011;51452;47.698;19.050;2023-02-28T15:52:04;7.53;;;4.33;;
64936;SDS011;51452;47.698;19.050;2023-02-28T15:54:31;8.63;;;4.60;;
64936;SDS011;51452;47.698;19.050;2023-02-28T15:57:11;7.70;;;4.33;;
64936;SDS011;51452;47.698;19.050;2023-02-28T15:59:42;8.37;;;4.30;;
64936;SDS011;51452;47.698;19.050;2023-02-28T16:02:19;8.43;;;4.68;;
64936;SDS011;51452;47.698;19.050;2023-02-28T16:07:32;7.20;;;4.33;;
64936;SDS011;51452;47.698;19.050;2023-02-28T16:10:03;7.73;;;4.30;;
64936;SDS011;51452;47.698;19.050;2023-02-28T16:12:30;7.87;;;4.50;;
64936;SDS011;51452;47.698;19.050;2023-02-28T16:14:58;10.97;;;5.17;;
64936;SDS011;51452;47.698;19.050;2023-02-28T16:17:29;8.20;;;4.67;;
64936;SDS011;51452;47.698;19.050;2023-02-28T16:19:57;9.20;;;4.53;;
64936;SDS011;51452;47.698;19.050;2023-02-28T16:22:23;9.03;;;4.90;;
64936;SDS011;51452;47.698;19.050;2023-02-28T16:24:48;8.63;;;4.73;;
64936;SDS011;51452;47.698;19.050;2023-02-28T16:27:16;9.33;;;4.93;;
64936;SDS011;51452;47.698;19.050;2023-02-28T16:29:45;8.27;;;4.87;;
64936;SDS011;51452;47.698;19.050;2023-02-28T16:32:12;10.57;;;5.20;;
64936;SDS011;51452;47.698;19.050;2023-02-28T16:34:40;9.77;;;5.03;;
64936;SDS011;51452;47.698;19.050;2023-02-28T16:37:16;8.93;;;5.00;;
64936;SDS011;51452;47.698;19.050;2023-02-28T16:39:43;9.90;;;5.37;;
64936;SDS011;51452;47.698;19.050;2023-02-28T16:42:22;10.30;;;5.23;;
64936;SDS011;51452;47.698;19.050;2023-02-28T16:44:51;13.77;;;6.10;;
64936;SDS011;51452;47.698;19.050;2023-02-28T16:47:18;13.47;;;6.40;;
64936;SDS011;51452;47.698;19.050;2023-02-28T16:49:43;12.73;;;7.00;;
64936;SDS011;51452;47.698;19.050;2023-02-28T16:52:10;12.10;;;6.60;;
64936;SDS011;51452;47.698;19.050;2023-02-28T16:54:36;12.63;;;6.73;;
64936;SDS011;51452;47.698;19.050;2023-02-28T16:57:03;24.97;;;10.50;;
64936;SDS011;51452;47.698;19.050;2023-02-28T16:59:30;28.80;;;11.97;;
64936;SDS011;51452;47.698;19.050;2023-02-28T17:01:57;19.27;;;9.03;;
64936;SDS011;51452;47.698;19.050;2023-02-28T17:04:24;14.80;;;7.47;;
64936;SDS011;51452;47.698;19.050;2023-02-28T17:06:52;18.77;;;9.57;;
64936;SDS011;51452;47.698;19.050;2023-02-28T17:09:22;16.97;;;7.83;;
64936;SDS011;51452;47.698;19.050;2023-02-28T17:11:48;13.67;;;7.73;;
64936;SDS011;51452;47.698;19.050;2023-02-28T17:14:14;12.40;;;6.33;;
64936;SDS011;51452;47.698;19.050;2023-02-28T17:16:40;11.47;;;6.10;;
64936;SDS011;51452;47.698;19.050;2023-02-28T17:19:11;14.47;;;6.03;;
64936;SDS011;51452;47.698;19.050;2023-02-28T17:21:39;13.53;;;6.60;;
64936;SDS011;51452;47.698;19.050;2023-02-28T17:24:06;12.10;;;6.43;;
64936;SDS011;51452;47.698;19.050;2023-02-28T17:26:33;10.87;;;6.27;;
64936;SDS011;51452;47.698;19.050;2023-02-28T17:28:58;10.37;;;6.27;;
64936;SDS011;51452;47.698;19.050;2023-02-28T17:31:24;15.60;;;7.03;;